sensor_id;sensor_type;location;lat;lon;timestamp;pressure;altitude;pressure_sealevel;temperature;humidity
48718;BME280;34521;33.042;-96.586;2022-09-29T00:01:12;100250.07;;;22.52;32.16
48718;BME280;34521;33.042;-96.586;2022-09-29T00:03:38;100251.95;;;22.82;31.87
48718;BME280;34521;33.042;-96.586;2022-09-29T00:06:02;100252.03;;;22.97;31.81
48718;BME280;34521;33.042;-96.586;2022-09-29T00:08:29;100253.40;;;22.68;31.92
48718;BME280;34521;33.042;-96.586;2022-09-29T00:10:52;100254.43;;;22.86;31.29
48718;BME280;34521;33.042;-96.586;2022-09-29T00:13:18;100252.60;;;22.89;31.24
48718;BME280;34521;33.042;-96.586;2022-09-29T00:15:42;100253.46;;;22.04;31.54
48718;BME280;34521;33.042;-96.586;2022-09-29T00:18:08;100257.01;;;22.57;31.82
48718;BME280;34521;33.042;-96.586;2022-09-29T00:20:32;100258.56;;;22.86;31.90
48718;BME280;34521;33.042;-96.586;2022-09-29T00:22:58;100256.72;;;22.57;31.95
48718;BME280;34521;33.042;-96.586;2022-09-29T00:25:23;100256.09;;;22.49;31.89
48718;BME280;34521;33.042;-96.586;2022-09-29T00:27:48;100258.20;;;22.71;31.69
48718;BME280;34521;33.042;-96.586;2022-09-29T00:30:12;100259.54;;;23.33;31.18
48718;BME280;34521;33.042;-96.586;2022-09-29T00:32:38;100257.09;;;21.93;32.19
48718;BME280;34521;33.042;-96.586;2022-09-29T00:35:03;100255.08;;;21.77;31.86
48718;BME280;34521;33.042;-96.586;2022-09-29T00:37:28;100256.35;;;22.02;31.29
48718;BME280;34521;33.042;-96.586;2022-09-29T00:39:53;100261.99;;;21.56;31.52
48718;BME280;34521;33.042;-96.586;2022-09-29T00:42:19;100264.12;;;21.55;31.34
48718;BME280;34521;33.042;-96.586;2022-09-29T00:45:03;100265.44;;;21.68;30.84
48718;BME280;34521;33.042;-96.586;2022-09-29T00:47:14;100260.15;;;22.02;30.09
48718;BME280;34521;33.042;-96.586;2022-09-29T00:49:39;100261.16;;;21.79;29.68
48718;BME280;34521;33.042;-96.586;2022-09-29T00:52:00;100259.68;;;22.09;30.65
48718;BME280;34521;33.042;-96.586;2022-09-29T00:54:24;100259.84;;;21.73;30.60
48718;BME280;34521;33.042;-96.586;2022-09-29T00:56:49;100262.81;;;22.25;30.37
48718;BME280;34521;33.042;-96.586;2022-09-29T00:59:16;100266.74;;;22.09;30.35
48718;BME280;34521;33.042;-96.586;2022-09-29T01:01:39;100271.75;;;21.62;30.77
48718;BME280;34521;33.042;-96.586;2022-09-29T01:04:05;100269.02;;;21.34;30.44
48718;BME280;34521;33.042;-96.586;2022-09-29T01:06:31;100271.62;;;21.75;29.91
48718;BME280;34521;33.042;-96.586;2022-09-29T01:08:57;100271.11;;;21.37;31.01
48718;BME280;34521;33.042;-96.586;2022-09-29T01:11:20;100271.81;;;21.41;30.53
48718;BME280;34521;33.042;-96.586;2022-09-29T01:13:44;100269.30;;;21.92;30.37
48718;BME280;34521;33.042;-96.586;2022-09-29T01:16:08;100267.06;;;22.32;29.97
48718;BME280;34521;33.042;-96.586;2022-09-29T01:18:34;100269.71;;;21.20;30.69
48718;BME280;34521;33.042;-96.586;2022-09-29T01:21:07;100268.91;;;21.69;29.82
48718;BME280;34521;33.042;-96.586;2022-09-29T01:23:41;100270.00;;;20.93;30.42
48718;BME280;34521;33.042;-96.586;2022-09-29T01:25:58;100271.69;;;21.12;31.07
48718;BME280;34521;33.042;-96.586;2022-09-29T01:28:27;100273.40;;;21.42;30.51
48718;BME280;34521;33.042;-96.586;2022-09-29T01:30:56;100270.59;;;21.77;30.28
48718;BME280;34521;33.042;-96.586;2022-09-29T01:33:16;100273.96;;;21.73;30.34
48718;BME280;34521;33.042;-96.586;2022-09-29T01:35:38;100270.71;;;22.02;30.20
48718;BME280;34521;33.042;-96.586;2022-09-29T01:38:02;100271.84;;;21.75;30.26
48718;BME280;34521;33.042;-96.586;2022-09-29T01:40:24;100272.80;;;20.92;30.71
48718;BME280;34521;33.042;-96.586;2022-09-29T01:42:51;100275.28;;;21.70;29.61
48718;BME280;34521;33.042;-96.586;2022-09-29T01:45:14;100276.64;;;21.11;30.94
48718;BME280;34521;33.042;-96.586;2022-09-29T01:47:38;100278.27;;;21.47;30.56
48718;BME280;34521;33.042;-96.586;2022-09-29T01:50:01;100280.61;;;21.61;30.50
48718;BME280;34521;33.042;-96.586;2022-09-29T01:52:26;100284.11;;;21.58;30.50
48718;BME280;34521;33.042;-96.586;2022-09-29T01:54:52;100280.10;;;22.31;29.70
48718;BME280;34521;33.042;-96.586;2022-09-29T01:57:18;100287.88;;;21.00;31.08
48718;BME280;34521;33.042;-96.586;2022-09-29T01:59:43;100292.96;;;21.05;30.69
48718;BME280;34521;33.042;-96.586;2022-09-29T02:02:08;100298.60;;;21.10;30.80
48718;BME280;34521;33.042;-96.586;2022-09-29T02:04:32;100298.70;;;21.26;30.58
48718;BME280;34521;33.042;-96.586;2022-09-29T02:07:00;100300.86;;;21.54;30.40
48718;BME280;34521;33.042;-96.586;2022-09-29T02:09:24;100301.43;;;21.82;30.19
48718;BME280;34521;33.042;-96.586;2022-09-29T02:11:45;100303.44;;;21.91;29.83
48718;BME280;34521;33.042;-96.586;2022-09-29T02:14:15;100301.60;;;20.96;30.52
48718;BME280;34521;33.042;-96.586;2022-09-29T02:16:38;100303.84;;;20.96;30.67
48718;BME280;34521;33.042;-96.586;2022-09-29T02:19:04;100303.14;;;20.72;30.31
48718;BME280;34521;33.042;-96.586;2022-09-29T02:21:27;100305.25;;;21.71;30.25
48718;BME280;34521;33.042;-96.586;2022-09-29T02:23:51;100306.47;;;21.37;30.42
48718;BME280;34521;33.042;-96.586;2022-09-29T02:26:15;100306.47;;;21.28;30.49
48718;BME280;34521;33.042;-96.586;2022-09-29T02:28:42;100308.07;;;21.82;30.07
48718;BME280;34521;33.042;-96.586;2022-09-29T02:31:05;100309.85;;;22.04;29.89
48718;BME280;34521;33.042;-96.586;2022-09-29T02:33:30;100308.10;;;21.33;30.28
48718;BME280;34521;33.042;-96.586;2022-09-29T02:36:05;100308.42;;;20.87;30.71
48718;BME280;34521;33.042;-96.586;2022-09-29T02:38:28;100307.62;;;20.24;30.63
48718;BME280;34521;33.042;-96.586;2022-09-29T02:40:52;100310.25;;;21.01;30.88
48718;BME280;34521;33.042;-96.586;2022-09-29T02:43:23;100314.10;;;20.95;30.77
48718;BME280;34521;33.042;-96.586;2022-09-29T02:45:43;100314.20;;;21.42;30.35
48718;BME280;34521;33.042;-96.586;2022-09-29T02:48:13;100316.93;;;21.56;30.27
48718;BME280;34521;33.042;-96.586;2022-09-29T02:50:35;100318.78;;;21.70;29.91
48718;BME280;34521;33.042;-96.586;2022-09-29T02:52:53;100320.04;;;21.14;30.27
48718;BME280;34521;33.042;-96.586;2022-09-29T02:55:19;100323.81;;;20.53;31.05
48718;BME280;34521;33.042;-96.586;2022-09-29T02:57:46;100327.48;;;21.10;30.44
48718;BME280;34521;33.042;-96.586;2022-09-29T03:00:08;100328.48;;;21.06;30.74
48718;BME280;34521;33.042;-96.586;2022-09-29T03:02:31;100332.30;;;21.15;30.54
48718;BME280;34521;33.042;-96.586;2022-09-29T03:04:57;100334.51;;;21.21;30.49
48718;BME280;34521;33.042;-96.586;2022-09-29T03:07:22;100332.05;;;21.74;30.03
48718;BME280;34521;33.042;-96.586;2022-09-29T03:09:47;100333.54;;;21.43;30.17
48718;BME280;34521;33.042;-96.586;2022-09-29T03:12:11;100334.06;;;22.10;29.61
48718;BME280;34521;33.042;-96.586;2022-09-29T03:14:36;100342.61;;;20.31;31.14
48718;BME280;34521;33.042;-96.586;2022-09-29T03:17:02;100340.22;;;20.77;29.94
48718;BME280;34521;33.042;-96.586;2022-09-29T03:19:26;100342.52;;;21.53;30.38
48718;BME280;34521;33.042;-96.586;2022-09-29T03:21:51;100344.26;;;21.09;30.55
48718;BME280;34521;33.042;-96.586;2022-09-29T03:24:17;100346.66;;;21.41;30.18
48718;BME280;34521;33.042;-96.586;2022-09-29T03:26:42;100350.59;;;21.47;30.18
48718;BME280;34521;33.042;-96.586;2022-09-29T03:29:07;100355.27;;;21.75;29.96
48718;BME280;34521;33.042;-96.586;2022-09-29T03:31:32;100355.49;;;21.89;29.89
48718;BME280;34521;33.042;-96.586;2022-09-29T03:33:57;100360.37;;;20.89;30.55
48718;BME280;34521;33.042;-96.586;2022-09-29T03:36:22;100366.06;;;20.18;31.26
48718;BME280;34521;33.042;-96.586;2022-09-29T03:38:52;100365.31;;;20.83;31.06
48718;BME280;34521;33.042;-96.586;2022-09-29T03:41:12;100363.68;;;20.80;30.68
48718;BME280;34521;33.042;-96.586;2022-09-29T03:43:37;100364.63;;;21.00;30.55
48718;BME280;34521;33.042;-96.586;2022-09-29T03:46:02;100367.40;;;21.42;30.15
48718;BME280;34521;33.042;-96.586;2022-09-29T03:48:29;100368.34;;;21.68;29.93
48718;BME280;34521;33.042;-96.586;2022-09-29T03:50:52;100367.04;;;21.32;30.37
48718;BME280;34521;33.042;-96.586;2022-09-29T03:53:18;100372.94;;;21.62;30.13
48718;BME280;34521;33.042;-96.586;2022-09-29T03:55:46;100375.31;;;20.91;30.31
48718;BME280;34521;33.042;-96.586;2022-09-29T03:58:07;100379.48;;;20.85;30.60
48718;BME280;34521;33.042;-96.586;2022-09-29T04:00:33;100382.86;;;19.92;32.26
48718;BME280;34521;33.042;-96.586;2022-09-29T04:02:58;100382.85;;;20.77;30.84
48718;BME280;34521;33.042;-96.586;2022-09-29T04:05:23;100379.28;;;21.26;30.47
48718;BME280;34521;33.042;-96.586;2022-09-29T04:07:48;100378.42;;;21.37;30.12
48718;BME280;34521;33.042;-96.586;2022-09-29T04:10:14;100379.17;;;21.32;30.23
48718;BME280;34521;33.042;-96.586;2022-09-29T04:12:38;100381.59;;;21.57;30.04
48718;BME280;34521;33.042;-96.586;2022-09-29T04:15:03;100383.91;;;21.34;30.10
48718;BME280;34521;33.042;-96.586;2022-09-29T04:17:28;100385.13;;;21.64;29.63
48718;BME280;34521;33.042;-96.586;2022-09-29T04:19:54;100397.56;;;20.20;31.21
48718;BME280;34521;33.042;-96.586;2022-09-29T04:22:18;100397.95;;;20.32;30.92
48718;BME280;34521;33.042;-96.586;2022-09-29T04:24:43;100395.61;;;20.66;30.85
48718;BME280;34521;33.042;-96.586;2022-09-29T04:27:08;100397.43;;;20.72;30.74
48718;BME280;34521;33.042;-96.586;2022-09-29T04:29:34;100390.06;;;20.90;30.55
48718;BME280;34521;33.042;-96.586;2022-09-29T04:31:58;100391.43;;;21.11;30.34
48718;BME280;34521;33.042;-96.586;2022-09-29T04:34:24;100391.17;;;21.43;30.11
48718;BME280;34521;33.042;-96.586;2022-09-29T04:36:49;100391.76;;;21.36;30.23
48718;BME280;34521;33.042;-96.586;2022-09-29T04:39:14;100395.22;;;21.59;30.11
48718;BME280;34521;33.042;-96.586;2022-09-29T04:41:39;100397.13;;;21.40;29.73
48718;BME280;34521;33.042;-96.586;2022-09-29T04:44:04;100399.94;;;20.45;30.84
48718;BME280;34521;33.042;-96.586;2022-09-29T04:46:29;100405.03;;;19.99;31.48
48718;BME280;34521;33.042;-96.586;2022-09-29T04:48:54;100404.10;;;20.45;31.12
48718;BME280;34521;33.042;-96.586;2022-09-29T04:51:19;100397.95;;;20.83;30.51
48718;BME280;34521;33.042;-96.586;2022-09-29T04:53:44;100395.13;;;21.05;30.29
48718;BME280;34521;33.042;-96.586;2022-09-29T04:56:09;100402.08;;;21.42;29.97
48718;BME280;34521;33.042;-96.586;2022-09-29T04:58:34;100400.65;;;21.34;30.09
48718;BME280;34521;33.042;-96.586;2022-09-29T05:01:05;100400.51;;;21.63;29.93
48718;BME280;34521;33.042;-96.586;2022-09-29T05:03:24;100399.97;;;21.68;29.91
48718;BME280;34521;33.042;-96.586;2022-09-29T05:05:54;100398.07;;;21.68;30.01
48718;BME280;34521;33.042;-96.586;2022-09-29T05:08:14;100403.63;;;20.49;30.69
48718;BME280;34521;33.042;-96.586;2022-09-29T05:10:40;100405.64;;;20.40;31.04
48718;BME280;34521;33.042;-96.586;2022-09-29T05:13:04;100400.37;;;20.94;30.95
48718;BME280;34521;33.042;-96.586;2022-09-29T05:15:29;100397.08;;;21.23;30.66
48718;BME280;34521;33.042;-96.586;2022-09-29T05:17:54;100396.46;;;20.77;30.76
48718;BME280;34521;33.042;-96.586;2022-09-29T05:20:19;100395.48;;;21.13;30.46
48718;BME280;34521;33.042;-96.586;2022-09-29T05:22:44;100393.43;;;20.93;30.66
48718;BME280;34521;33.042;-96.586;2022-09-29T05:25:10;100396.93;;;20.98;30.39
48718;BME280;34521;33.042;-96.586;2022-09-29T05:27:35;100392.56;;;21.28;30.37
48718;BME280;34521;33.042;-96.586;2022-09-29T05:30:00;100394.33;;;21.23;30.25
48718;BME280;34521;33.042;-96.586;2022-09-29T05:32:25;100393.42;;;21.09;29.98
